createdAt,value
2018-04-22T00:00:57.630Z,99062.75
2018-04-22T00:03:26.319Z,99064.37
2018-04-22T00:05:54.975Z,99064.19
2018-04-22T00:08:23.674Z,99063.33
2018-04-22T00:10:52.295Z,99064.58
2018-04-22T00:13:21.063Z,99068.45
2018-04-22T00:15:50.201Z,99065.25
2018-04-22T00:18:19.588Z,99063.39
2018-04-22T00:20:48.357Z,99058.95
2018-04-22T00:23:17.041Z,99056.62
2018-04-22T00:25:45.745Z,99055.73
2018-04-22T00:28:14.353Z,99057.43
2018-04-22T00:30:42.983Z,99065.80
2018-04-22T00:33:11.558Z,99064.28
2018-04-22T00:35:40.146Z,99057.39
2018-04-22T00:38:08.896Z,99055.41
2018-04-22T00:40:37.482Z,99059.59
2018-04-22T00:43:06.280Z,99062.42
2018-04-22T00:45:34.949Z,99055.96
2018-04-22T00:48:04.611Z,99051.35
2018-04-22T00:50:33.814Z,99054.14
2018-04-22T00:53:02.538Z,99048.89
2018-04-22T00:55:31.205Z,99051.69
2018-04-22T00:58:00.596Z,99045.08
2018-04-22T01:00:29.199Z,99049.82
2018-04-22T01:02:57.783Z,99051.44
2018-04-22T01:05:26.354Z,99052.57
2018-04-22T01:07:55.748Z,99049.02
2018-04-22T01:10:25.131Z,99058.27
2018-04-22T01:12:53.699Z,99054.88
2018-04-22T01:15:23.140Z,99053.37
2018-04-22T01:17:51.791Z,99056.54
2018-04-22T01:20:21.316Z,99052.56
2018-04-22T01:22:50.616Z,99055.25
2018-04-22T01:25:19.281Z,99058.34
2018-04-22T01:27:48.599Z,99054.05
2018-04-22T01:30:17.258Z,99054.28
2018-04-22T01:32:45.824Z,99057.03
2018-04-22T01:35:14.613Z,99055.78
2018-04-22T01:37:43.167Z,99054.13
2018-04-22T01:40:11.741Z,99051.98
2018-04-22T01:42:41.482Z,99054.17
2018-04-22T01:45:10.911Z,99051.09
2018-04-22T01:47:39.560Z,99049.56
2018-04-22T01:50:08.811Z,99056.22
2018-04-22T01:52:38.629Z,99050.45
2018-04-22T01:55:07.539Z,99058.26
2018-04-22T01:57:36.195Z,99060.30
2018-04-22T02:00:04.896Z,99064.38
2018-04-22T02:02:33.645Z,99063.61
2018-04-22T02:05:02.180Z,99061.01
2018-04-22T02:07:30.757Z,99059.90
2018-04-22T02:09:59.267Z,99056.23
2018-04-22T02:12:27.903Z,99058.01
2018-04-22T02:14:57.270Z,99057.70
2018-04-22T02:17:25.903Z,99058.75
2018-04-22T02:19:54.477Z,99055.71
2018-04-22T02:22:23.198Z,99055.45
2018-04-22T02:24:52.313Z,99052.16
2018-04-22T02:27:21.292Z,99053.59
2018-04-22T02:29:49.976Z,99045.06
2018-04-22T02:32:18.650Z,99043.44
2018-04-22T02:34:48.094Z,99039.37
2018-04-22T02:37:16.806Z,99040.28
2018-04-22T02:39:45.431Z,99043.48
2018-04-22T02:42:14.768Z,99039.16
2018-04-22T02:44:44.322Z,99037.05
2018-04-22T02:47:12.965Z,99035.17
2018-04-22T02:49:41.591Z,99028.25
2018-04-22T02:52:11.051Z,99037.78
2018-04-22T02:54:39.982Z,99036.88
2018-04-22T02:57:09.133Z,99037.22
2018-04-22T02:59:38.216Z,99038.64
2018-04-22T03:02:06.799Z,99037.07
2018-04-22T03:04:35.385Z,99037.41
2018-04-22T03:07:03.976Z,99041.88
2018-04-22T03:09:33.421Z,99041.42
2018-04-22T03:12:01.999Z,99040.23
2018-04-22T03:14:30.631Z,99035.86
2018-04-22T03:16:59.390Z,99038.52
2018-04-22T03:19:28.070Z,99043.78
2018-04-22T03:21:56.835Z,99036.33
2018-04-22T03:24:25.506Z,99031.59
2018-04-22T03:26:54.228Z,99033.02
2018-04-22T03:29:23.203Z,99030.20
2018-04-22T03:31:53.597Z,99026.86
2018-04-22T03:34:22.220Z,99031.83
2018-04-22T03:36:51.543Z,99028.98
2018-04-22T03:39:20.992Z,99029.91
2018-04-22T03:41:49.767Z,99030.94
2018-04-22T03:44:19.079Z,99027.84
2018-04-22T03:46:47.789Z,99024.39
2018-04-22T03:49:16.383Z,99022.50
2018-04-22T03:51:45.013Z,99026.39
2018-04-22T03:54:14.334Z,99025.13
2018-04-22T03:56:44.238Z,99016.86
2018-04-22T03:59:13.433Z,99022.87
2018-04-22T04:01:42.373Z,99021.70
2018-04-22T04:04:10.923Z,99031.70
2018-04-22T04:06:40.381Z,99031.02
2018-04-22T04:09:09.067Z,99033.25
2018-04-22T04:11:37.646Z,99038.20
2018-04-22T04:14:06.218Z,99033.08
2018-04-22T04:16:34.898Z,99035.31
2018-04-22T04:19:21.499Z,99026.33
2018-04-22T04:22:07.819Z,99033.86
2018-04-22T04:24:54.327Z,99036.53
2018-04-22T04:30:26.854Z,99039.38
2018-04-22T04:32:55.445Z,99043.30
2018-04-22T04:35:24.154Z,99046.44
2018-04-22T04:37:52.805Z,99043.83
2018-04-22T04:40:21.386Z,99038.97
2018-04-22T04:42:50.037Z,99034.70
2018-04-22T04:45:18.704Z,99035.34
2018-04-22T04:47:48.286Z,99033.19
2018-04-22T04:50:17.189Z,99035.94
2018-04-22T04:52:46.220Z,99035.34
2018-04-22T04:55:15.109Z,99039.67
2018-04-22T04:57:43.799Z,99045.28
2018-04-22T05:00:12.589Z,99041.09
2018-04-22T05:02:41.160Z,99048.01
2018-04-22T05:05:09.718Z,99046.72
2018-04-22T05:07:38.446Z,99044.25
2018-04-22T05:10:07.022Z,99043.77
2018-04-22T05:12:36.532Z,99044.09
2018-04-22T05:15:05.996Z,99047.38
2018-04-22T05:17:34.780Z,99046.80
2018-04-22T05:20:04.215Z,99043.55
2018-04-22T05:22:33.340Z,99046.41
2018-04-22T05:25:02.534Z,99045.75
2018-04-22T05:27:32.749Z,99048.00
2018-04-22T05:30:01.547Z,99050.70
2018-04-22T05:32:30.346Z,99056.91
2018-04-22T05:34:58.996Z,99057.71
2018-04-22T05:37:28.390Z,99051.85
2018-04-22T05:39:57.170Z,99055.09
2018-04-22T05:42:25.966Z,99053.39
2018-04-22T05:44:54.669Z,99057.08
2018-04-22T05:47:24.166Z,99061.36
2018-04-22T05:49:53.296Z,99063.69
2018-04-22T05:52:22.676Z,99061.13
2018-04-22T05:54:52.186Z,99066.56
2018-04-22T05:57:22.481Z,99054.13
2018-04-22T05:59:52.106Z,99053.23
2018-04-22T06:02:21.724Z,99056.98
2018-04-22T06:04:50.388Z,99057.87
2018-04-22T06:07:19.053Z,99062.56
2018-04-22T06:09:47.698Z,99064.23
2018-04-22T06:12:16.515Z,99054.09
2018-04-22T06:14:45.180Z,99055.80
2018-04-22T06:17:14.598Z,99065.67
2018-04-22T06:19:44.160Z,99061.94
2018-04-22T06:22:13.897Z,99066.16
2018-04-22T06:24:43.158Z,99067.73
2018-04-22T06:27:11.917Z,99068.01
2018-04-22T06:29:40.866Z,99067.83
2018-04-22T06:32:10.290Z,99068.59
2018-04-22T06:34:39.587Z,99065.63
2018-04-22T06:37:08.426Z,99069.40
2018-04-22T06:39:37.184Z,99071.98
2018-04-22T06:42:05.958Z,99069.81
2018-04-22T06:44:34.845Z,99076.55
2018-04-22T06:47:03.551Z,99076.80
2018-04-22T06:49:32.644Z,99076.13
2018-04-22T06:52:03.140Z,99080.09
2018-04-22T06:54:33.257Z,99075.20
2018-04-22T06:57:02.464Z,99075.84
2018-04-22T06:59:31.714Z,99073.60
2018-04-22T07:02:00.627Z,99074.56
2018-04-22T07:04:29.812Z,99073.67
2018-04-22T07:06:58.596Z,99082.59
2018-04-22T07:09:28.063Z,99074.23
2018-04-22T07:11:56.771Z,99073.22
2018-04-22T07:14:25.711Z,99076.86
2018-04-22T07:16:55.980Z,99080.22
2018-04-22T07:19:25.930Z,99085.77
2018-04-22T07:21:55.601Z,99078.06
2018-04-22T07:24:24.511Z,99077.41
2018-04-22T07:26:53.182Z,99074.69
2018-04-22T07:29:22.053Z,99078.75
2018-04-22T07:31:51.541Z,99089.48
2018-04-22T07:34:20.205Z,99084.56
2018-04-22T07:36:49.718Z,99078.58
2018-04-22T07:39:19.194Z,99082.83
2018-04-22T07:41:47.938Z,99083.33
2018-04-22T07:44:16.696Z,99079.82
2018-04-22T07:46:45.357Z,99087.98
2018-04-22T07:49:14.336Z,99084.27
2018-04-22T07:51:43.720Z,99084.66
2018-04-22T07:54:13.863Z,99081.78
2018-04-22T07:56:43.521Z,99083.94
2018-04-22T07:59:12.331Z,99086.66
2018-04-22T08:01:41.079Z,99085.47
2018-04-22T08:04:09.665Z,99086.45
2018-04-22T08:06:38.350Z,99083.23
2018-04-22T08:09:07.020Z,99089.14
2018-04-22T08:11:36.674Z,99089.63
2018-04-22T08:14:05.764Z,99083.67
2018-04-22T08:16:35.294Z,99085.70
2018-04-22T08:19:04.883Z,99088.33
2018-04-22T08:21:34.231Z,99091.28
2018-04-22T08:24:03.642Z,99083.02
2018-04-22T08:26:32.370Z,99073.69
2018-04-22T08:29:01.078Z,99076.11
2018-04-22T08:31:30.530Z,99074.44
2018-04-22T08:33:59.266Z,99075.12
2018-04-22T08:36:28.258Z,99070.59
2018-04-22T08:38:56.970Z,99069.86
2018-04-22T08:41:25.732Z,99076.86
2018-04-22T08:43:54.434Z,99075.53
2018-04-22T08:46:23.095Z,99077.41
2018-04-22T08:48:52.108Z,99076.38
2018-04-22T08:51:21.375Z,99075.30
2018-04-22T08:53:50.941Z,99073.95
2018-04-22T08:56:19.898Z,99076.23
2018-04-22T08:58:48.485Z,99079.84
2018-04-22T09:01:17.282Z,99078.61
2018-04-22T09:03:45.904Z,99082.64
2018-04-22T09:06:14.611Z,99077.20
2018-04-22T09:08:43.267Z,99077.92
2018-04-22T09:11:12.834Z,99080.70
2018-04-22T09:13:41.500Z,99077.23
2018-04-22T09:16:10.742Z,99078.06
2018-04-22T09:18:39.538Z,99074.66
2018-04-22T09:21:08.789Z,99073.08
2018-04-22T09:23:38.033Z,99073.67
2018-04-22T09:26:09.635Z,99075.05
2018-04-22T09:28:39.449Z,99075.38
2018-04-22T09:31:08.586Z,99067.84
2018-04-22T09:33:37.850Z,99068.73
2018-04-22T09:36:06.483Z,99075.62
2018-04-22T09:38:35.258Z,99065.67
2018-04-22T09:41:03.958Z,99064.47
2018-04-22T09:43:32.704Z,99069.45
2018-04-22T09:46:01.475Z,99071.23
2018-04-22T09:48:30.368Z,99068.34
2018-04-22T09:50:59.929Z,99063.80
2018-04-22T09:53:29.677Z,99065.28
2018-04-22T09:56:00.530Z,99067.20
2018-04-22T09:58:29.441Z,99061.13
2018-04-22T10:01:00.985Z,99057.88
2018-04-22T10:03:32.280Z,99047.69
2018-04-22T10:06:02.766Z,99056.39
2018-04-22T10:08:31.457Z,99051.91
2018-04-22T10:11:00.047Z,99044.18
2018-04-22T10:13:28.758Z,99045.25
2018-04-22T10:15:57.442Z,99044.58
2018-04-22T10:18:26.685Z,99036.86
2018-04-22T10:20:56.356Z,99045.53
2018-04-22T10:23:25.947Z,99047.48
2018-04-22T10:25:54.672Z,99035.34
2018-04-22T10:28:23.280Z,99041.31
2018-04-22T10:30:51.933Z,99032.58
2018-04-22T10:33:20.613Z,99036.79
2018-04-22T10:35:51.193Z,99026.62
2018-04-22T10:38:19.793Z,99027.52
2018-04-22T10:40:49.207Z,99021.48
2018-04-22T10:43:18.744Z,99017.36
2018-04-22T10:45:47.800Z,99010.84
2018-04-22T10:48:17.215Z,99013.10
2018-04-22T10:50:46.352Z,99011.59
2018-04-22T10:53:15.123Z,99006.42
2018-04-22T10:55:44.114Z,99004.48
2018-04-22T10:58:13.095Z,99003.89
2018-04-22T11:00:41.820Z,99006.42
2018-04-22T11:03:10.529Z,98996.08
2018-04-22T11:05:39.236Z,98995.52
2018-04-22T11:08:08.909Z,98997.73
2018-04-22T11:10:37.808Z,98995.17
2018-04-22T11:13:06.469Z,98989.95
2018-04-22T11:15:35.782Z,98990.89
2018-04-22T11:18:06.261Z,98986.41
2018-04-22T11:20:35.624Z,98985.44
2018-04-22T11:23:04.767Z,98982.52
2018-04-22T11:25:33.760Z,98977.81
2018-04-22T11:28:02.600Z,98980.81
2018-04-22T11:30:32.103Z,98972.40
2018-04-22T11:33:00.686Z,98972.27
2018-04-22T11:35:29.488Z,98970.38
2018-04-22T11:37:58.910Z,98974.60
2018-04-22T11:40:27.730Z,98962.89
2018-04-22T11:42:57.301Z,98967.56
2018-04-22T11:45:25.920Z,98962.24
2018-04-22T11:47:54.952Z,98965.45
2018-04-22T11:51:13.471Z,98960.33
2018-04-22T11:53:43.222Z,98961.45
2018-04-22T11:56:11.942Z,98953.23
2018-04-22T11:58:40.583Z,98943.98
2018-04-22T12:01:09.274Z,98948.56
2018-04-22T12:03:38.006Z,98946.50
2018-04-22T12:06:06.981Z,98948.13
2018-04-22T12:08:35.777Z,98944.98
2018-04-22T12:11:05.761Z,98943.56
2018-04-22T12:13:35.285Z,98944.13
2018-04-22T12:16:05.354Z,98946.55
2018-04-22T12:18:34.813Z,98947.15
2018-04-22T12:21:03.896Z,98940.45
2018-04-22T12:23:33.035Z,98938.02
2018-04-22T12:26:01.862Z,98934.33
2018-04-22T12:28:30.702Z,98939.19
2018-04-22T12:31:00.553Z,98935.33
2018-04-22T12:33:29.441Z,98931.23
2018-04-22T12:35:59.892Z,98931.73
2018-04-22T12:38:29.574Z,98926.55
2018-04-22T12:40:59.609Z,98925.22
2018-04-22T12:43:28.572Z,98929.13
2018-04-22T12:45:57.798Z,98916.70
2018-04-22T12:48:28.498Z,98920.38
2018-04-22T12:50:57.756Z,98913.17
2018-04-22T12:53:26.597Z,98918.27
2018-04-22T12:55:57.130Z,98917.34
2018-04-22T12:58:28.058Z,98912.05
2018-04-22T13:00:57.959Z,98910.75
2018-04-22T13:03:29.748Z,98912.11
2018-04-22T13:05:59.187Z,98910.02
2018-04-22T13:08:28.275Z,98903.39
2018-04-22T13:10:58.956Z,98896.11
2018-04-22T13:13:28.640Z,98899.65
2018-04-22T13:15:58.434Z,98898.32
2018-04-22T13:18:27.736Z,98895.23
2018-04-22T13:20:57.196Z,98892.61
2018-04-22T13:23:26.523Z,98891.64
2018-04-22T13:25:55.685Z,98882.36
2018-04-22T13:28:27.613Z,98889.02
2018-04-22T13:30:57.126Z,98888.66
2018-04-22T13:33:26.193Z,98876.95
2018-04-22T13:35:56.639Z,98878.72
2018-04-22T13:38:26.006Z,98878.38
2018-04-22T13:40:56.923Z,98881.38
2018-04-22T13:43:26.795Z,98880.64
2018-04-22T13:45:56.087Z,98881.73
2018-04-22T13:48:25.240Z,98876.70
2018-04-22T13:50:54.838Z,98867.93
2018-04-22T13:53:25.407Z,98861.73
2018-04-22T13:55:56.718Z,98866.83
2018-04-22T13:58:26.638Z,98864.41
2018-04-22T14:00:56.419Z,98864.36
2018-04-22T14:03:25.794Z,98863.72
2018-04-22T14:05:55.682Z,98861.80
2018-04-22T14:08:24.550Z,98858.28
2018-04-22T14:10:55.648Z,98854.18
2018-04-22T14:13:24.410Z,98854.86
2018-04-22T14:15:53.412Z,98855.42
2018-04-22T14:18:23.922Z,98853.61
2018-04-22T14:20:53.237Z,98851.04
2018-04-22T14:23:24.506Z,98850.20
2018-04-22T14:25:53.760Z,98845.48
2018-04-22T14:28:23.463Z,98851.17
2018-04-22T14:30:53.084Z,98846.83
2018-04-22T14:33:22.431Z,98850.70
2018-04-22T14:35:52.660Z,98849.30
2018-04-22T14:38:21.461Z,98849.77
2018-04-22T14:40:52.121Z,98844.77
2018-04-22T14:43:23.758Z,98836.91
2018-04-22T14:49:07.486Z,98836.17
2018-04-22T14:51:36.275Z,98832.70
2018-04-22T14:54:05.134Z,98830.38
2018-04-22T14:56:34.772Z,98829.55
2018-04-22T14:59:03.457Z,98824.52
2018-04-22T15:01:32.939Z,98827.13
2018-04-22T15:04:02.906Z,98830.69
2018-04-22T15:06:32.587Z,98825.50
2018-04-22T15:09:01.255Z,98824.51
2018-04-22T15:11:29.853Z,98822.95
2018-04-22T15:13:58.645Z,98824.91
2018-04-22T15:16:27.356Z,98818.98
2018-04-22T15:18:56.333Z,98819.15
2018-04-22T15:21:25.469Z,98821.79
2018-04-22T15:23:54.144Z,98820.66
2018-04-22T15:26:22.933Z,98818.52
2018-04-22T15:28:51.704Z,98813.88
2018-04-22T15:31:20.539Z,98812.08
2018-04-22T15:33:49.654Z,98813.27
2018-04-22T15:36:18.985Z,98816.01
2018-04-22T15:38:48.817Z,98820.30
2018-04-22T15:41:18.659Z,98813.41
2018-04-22T15:43:48.545Z,98816.77
2018-04-22T15:46:17.440Z,98816.84
2018-04-22T15:48:47.199Z,98818.64
2018-04-22T15:51:15.953Z,98815.32
2018-04-22T15:53:45.399Z,98809.79
2018-04-22T15:56:14.201Z,98809.61
2018-04-22T15:58:42.897Z,98816.14
2018-04-22T16:01:12.566Z,98815.59
2018-04-22T16:03:41.729Z,98815.20
2018-04-22T16:06:12.131Z,98814.70
2018-04-22T16:08:41.440Z,98824.34
2018-04-22T16:11:10.683Z,98820.81
2018-04-22T16:13:40.123Z,98819.83
2018-04-22T16:16:09.203Z,98825.73
2018-04-22T16:18:38.062Z,98818.33
2018-04-22T16:21:06.911Z,98811.05
2018-04-22T16:23:35.579Z,98818.92
2018-04-22T16:26:05.101Z,98814.61
2018-04-22T16:28:33.946Z,98818.05
2018-04-22T16:31:03.494Z,98812.27
2018-04-22T16:33:33.768Z,98813.50
2018-04-22T16:36:02.912Z,98817.19
2018-04-22T16:38:32.370Z,98804.64
2018-04-22T16:41:01.345Z,98812.32
2018-04-22T16:43:30.081Z,98809.77
2018-04-22T16:45:58.890Z,98813.91
2018-04-22T16:48:27.776Z,98814.00
2018-04-22T16:50:56.929Z,98816.30
2018-04-22T16:53:26.104Z,98809.20
2018-04-22T16:55:54.887Z,98812.13
2018-04-22T16:58:23.681Z,98812.17
2018-04-22T17:00:52.533Z,98813.92
2018-04-22T17:03:21.405Z,98817.13
2018-04-22T17:05:51.067Z,98821.25
2018-04-22T17:08:20.567Z,98821.98
2018-04-22T17:10:49.339Z,98823.55
2018-04-22T17:13:18.196Z,98831.86
2018-04-22T17:15:47.069Z,98833.21
2018-04-22T17:18:17.394Z,98834.59
2018-04-22T17:20:46.505Z,98835.78
2018-04-22T17:23:15.645Z,98834.97
2018-04-22T17:25:44.842Z,98842.14
2018-04-22T17:28:14.140Z,98843.98
2018-04-22T17:30:43.165Z,98849.44
2018-04-22T17:33:12.806Z,98852.11
2018-04-22T17:35:43.167Z,98853.63
2018-04-22T17:38:12.940Z,98860.03
2018-04-22T17:40:42.080Z,98864.13
2018-04-22T17:43:11.003Z,98865.16
2018-04-22T17:45:39.889Z,98870.24
2018-04-22T17:48:08.847Z,98873.38
2018-04-22T17:50:37.796Z,98875.39
2018-04-22T17:53:06.862Z,98881.37
2018-04-22T17:55:36.003Z,98880.74
2018-04-22T17:58:05.793Z,98886.56
2018-04-22T18:00:35.581Z,98891.64
2018-04-22T18:03:05.584Z,98889.15
2018-04-22T18:05:36.094Z,98889.15
2018-04-22T18:08:05.401Z,98897.35
2018-04-22T18:10:34.442Z,98903.05
2018-04-22T18:13:03.383Z,98910.66
2018-04-22T18:15:32.823Z,98914.41
2018-04-22T18:18:02.554Z,98914.71
2018-04-22T18:20:32.281Z,98917.11
2018-04-22T18:23:02.114Z,98920.95
2018-04-22T18:25:32.828Z,98923.34
2018-04-22T18:28:02.306Z,98924.73
2018-04-22T18:30:31.859Z,98930.57
2018-04-22T18:33:00.838Z,98932.63
2018-04-22T18:35:31.170Z,98928.56
2018-04-22T18:38:01.169Z,98929.66
2018-04-22T18:40:31.672Z,98930.98
2018-04-22T18:43:02.475Z,98931.05
2018-04-22T18:45:31.489Z,98937.82
2018-04-22T18:48:01.199Z,98939.39
2018-04-22T18:53:05.454Z,98951.72
2018-04-22T18:55:34.562Z,98948.53
2018-04-22T18:58:04.509Z,98957.34
2018-04-22T19:00:33.979Z,98959.83
2018-04-22T19:03:04.103Z,98965.27
2018-04-22T19:05:34.358Z,98959.47
2018-04-22T19:08:05.043Z,98960.78
2018-04-22T19:10:34.393Z,98966.78
2018-04-22T19:13:03.996Z,98969.61
2018-04-22T19:15:34.560Z,98967.59
2018-04-22T19:18:04.739Z,98974.11
2018-04-22T19:20:35.812Z,98974.52
2018-04-22T19:23:06.597Z,98975.33
2018-04-22T19:25:36.419Z,98984.14
2018-04-22T19:28:06.729Z,98986.38
2018-04-22T19:30:41.195Z,98986.02
2018-04-22T19:33:11.048Z,98988.81
2018-04-22T19:35:42.277Z,98992.64
2018-04-22T19:38:14.845Z,98990.96
2018-04-22T19:40:44.237Z,98998.62
2018-04-22T19:43:13.305Z,99001.97
2018-04-22T19:45:43.004Z,98999.97
2018-04-22T19:48:13.660Z,99006.36
2018-04-22T19:50:45.516Z,99011.89
2018-04-22T19:53:15.172Z,99003.09
2018-04-22T19:55:44.398Z,99014.55
2018-04-22T19:58:15.841Z,99010.72
2018-04-22T20:00:45.592Z,99014.14
2018-04-22T20:03:15.032Z,99012.94
2018-04-22T20:05:45.367Z,99016.88
2018-04-22T20:08:15.146Z,99017.96
2018-04-22T20:10:44.423Z,99022.81
2018-04-22T20:13:13.709Z,99027.09
2018-04-22T20:18:16.702Z,99029.05
2018-04-22T20:20:49.693Z,99034.87
2018-04-22T20:23:20.497Z,99033.41
2018-04-22T20:25:50.465Z,99038.12
2018-04-22T20:28:24.393Z,99038.50
2018-04-22T20:30:54.078Z,99046.58
2018-04-22T20:33:24.239Z,99040.84
2018-04-22T20:35:54.496Z,99044.84
2018-04-22T20:38:24.095Z,99051.13
2018-04-22T20:40:55.122Z,99054.41
2018-04-22T20:43:24.338Z,99052.77
2018-04-22T20:45:53.950Z,99054.56
2018-04-22T20:48:23.145Z,99051.27
2018-04-22T20:50:52.181Z,99048.90
2018-04-22T20:53:21.934Z,99053.91
2018-04-22T20:55:51.285Z,99060.56
2018-04-22T21:00:55.683Z,99059.89
2018-04-22T21:05:59.386Z,99059.61
2018-04-22T21:08:28.474Z,99063.96
2018-04-22T21:10:57.188Z,99068.48
2018-04-22T21:13:26.909Z,99064.19
2018-04-22T21:15:56.519Z,99067.99
2018-04-22T21:18:25.320Z,99071.94
2018-04-22T21:20:55.286Z,99072.41
2018-04-22T21:23:24.885Z,99078.03
2018-04-22T21:25:58.591Z,99070.94
2018-04-22T21:28:29.710Z,99072.88
2018-04-22T21:30:59.421Z,99070.39
2018-04-22T21:33:29.200Z,99076.41
2018-04-22T21:35:58.788Z,99071.11
2018-04-22T21:38:27.502Z,99079.08
2018-04-22T21:40:56.244Z,99076.78
2018-04-22T21:46:01.211Z,99082.95
2018-04-22T21:48:30.552Z,99090.09
2018-04-22T21:50:59.505Z,99089.81
2018-04-22T21:53:28.470Z,99093.34
2018-04-22T21:55:57.374Z,99088.27
2018-04-22T21:58:26.225Z,99093.54
2018-04-22T22:00:55.763Z,99098.34
2018-04-22T22:03:24.855Z,99097.27
2018-04-22T22:05:54.940Z,99092.91
2018-04-22T22:08:25.770Z,99100.61
2018-04-22T22:10:55.327Z,99098.69
2018-04-22T22:15:58.146Z,99101.56
2018-04-22T22:18:27.188Z,99097.00
2018-04-22T22:20:55.980Z,99099.58
2018-04-22T22:23:24.683Z,99105.41
2018-04-22T22:25:53.355Z,99101.78
2018-04-22T22:28:22.684Z,99105.58
2018-04-22T22:33:26.610Z,99104.74
2018-04-22T22:35:55.380Z,99104.67
2018-04-22T22:38:24.414Z,99106.20
2018-04-22T22:40:53.595Z,99111.14
2018-04-22T22:43:22.312Z,99102.14
2018-04-22T22:45:50.975Z,99114.47
2018-04-22T22:48:20.548Z,99113.42
2018-04-22T22:50:49.370Z,99120.54
2018-04-22T22:53:18.004Z,99116.02
2018-04-22T22:55:46.715Z,99117.50
2018-04-22T22:58:15.273Z,99116.63
2018-04-22T23:00:44.020Z,99110.05
2018-04-22T23:03:13.633Z,99108.70
2018-04-22T23:05:42.364Z,99106.90
2018-04-22T23:08:11.246Z,99104.22
2018-04-22T23:10:41.599Z,99107.13
2018-04-22T23:13:10.537Z,99102.72
2018-04-22T23:18:12.826Z,99102.80
2018-04-22T23:20:41.434Z,99112.34
2018-04-22T23:23:10.121Z,99108.47
2018-04-22T23:25:39.558Z,99107.82
2018-04-22T23:28:08.233Z,99104.35
2018-04-22T23:30:37.588Z,99106.06
2018-04-22T23:33:06.477Z,99108.54
2018-04-22T23:35:36.536Z,99107.88
2018-04-22T23:38:05.654Z,99106.67
2018-04-22T23:40:34.310Z,99099.20
2018-04-22T23:43:02.911Z,99098.15
2018-04-22T23:45:31.491Z,99108.59
2018-04-22T23:48:00.167Z,99101.80
2018-04-22T23:50:28.758Z,99097.31
2018-04-22T23:52:58.674Z,99099.31
2018-04-22T23:55:28.081Z,99094.70
2018-04-22T23:57:56.779Z,99090.72
